sensor_id;sensor_type;location;lat;lon;timestamp;P1;P2;P0
71794;PMS7003;59641;45.188;5.712;2022-09-01T00:01:27;7.00;7.00;6.00
71794;PMS7003;59641;45.188;5.712;2022-09-01T00:03:54;9.40;8.20;6.40
71794;PMS7003;59641;45.188;5.712;2022-09-01T00:06:23;9.00;8.60;6.40
71794;PMS7003;59641;45.188;5.712;2022-09-01T00:08:53;12.00;8.00;6.00
71794;PMS7003;59641;45.188;5.712;2022-09-01T00:11:20;9.00;8.00;6.00
71794;PMS7003;59641;45.188;5.712;2022-09-01T00:13:47;9.60;8.00;6.40
71794;PMS7003;59641;45.188;5.712;2022-09-01T00:16:15;8.20;8.20;6.60
71794;PMS7003;59641;45.188;5.712;2022-09-01T00:18:43;9.80;9.80;7.00
71794;PMS7003;59641;45.188;5.712;2022-09-01T00:21:17;9.00;8.20;7.00
71794;PMS7003;59641;45.188;5.712;2022-09-01T00:23:44;11.00;10.40;8.00
71794;PMS7003;59641;45.188;5.712;2022-09-01T00:26:09;11.50;10.25;8.00
71794;PMS7003;59641;45.188;5.712;2022-09-01T00:28:35;9.75;9.75;7.00
71794;PMS7003;59641;45.188;5.712;2022-09-01T00:31:02;8.00;8.00;6.80
71794;PMS7003;59641;45.188;5.712;2022-09-01T00:33:30;9.20;8.40;6.60
71794;PMS7003;59641;45.188;5.712;2022-09-01T00:35:56;10.60;9.80;7.40
71794;PMS7003;59641;45.188;5.712;2022-09-01T00:38:21;12.00;11.00;7.00
71794;PMS7003;59641;45.188;5.712;2022-09-01T00:40:47;8.00;7.50;6.00
71794;PMS7003;59641;45.188;5.712;2022-09-01T00:43:15;10.40;8.40;6.20
71794;PMS7003;59641;45.188;5.712;2022-09-01T00:45:44;11.60;10.60;9.20
71794;PMS7003;59641;45.188;5.712;2022-09-01T00:48:10;8.75;8.25;6.75
71794;PMS7003;59641;45.188;5.712;2022-09-01T00:50:35;15.75;15.75;13.00
71794;PMS7003;59641;45.188;5.712;2022-09-01T00:53:01;10.80;9.00;7.00
71794;PMS7003;59641;45.188;5.712;2022-09-01T00:55:31;7.40;7.00;6.00
71794;PMS7003;59641;45.188;5.712;2022-09-01T00:57:59;9.80;9.80;7.80
71794;PMS7003;59641;45.188;5.712;2022-09-01T01:00:28;9.00;8.20;7.00
71794;PMS7003;59641;45.188;5.712;2022-09-01T01:02:56;11.20;9.00;6.20
71794;PMS7003;59641;45.188;5.712;2022-09-01T01:05:22;10.40;10.00;6.80
71794;PMS7003;59641;45.188;5.712;2022-09-01T01:07:51;12.00;12.00;8.20
71794;PMS7003;59641;45.188;5.712;2022-09-01T01:10:19;9.60;9.60;7.60
71794;PMS7003;59641;45.188;5.712;2022-09-01T01:12:47;4.40;3.00;2.00
71794;PMS7003;59641;45.188;5.712;2022-09-01T01:15:15;8.40;7.60;6.60
71794;PMS7003;59641;45.188;5.712;2022-09-01T01:17:42;9.80;8.80;7.40
71794;PMS7003;59641;45.188;5.712;2022-09-01T01:20:07;11.50;9.75;7.50
71794;PMS7003;59641;45.188;5.712;2022-09-01T01:28:13;10.00;9.40;7.00
71794;PMS7003;59641;45.188;5.712;2022-09-01T01:30:41;9.80;7.40;6.40
71794;PMS7003;59641;45.188;5.712;2022-09-01T01:33:20;9.60;8.80;7.00
71794;PMS7003;59641;45.188;5.712;2022-09-01T01:35:50;10.60;10.60;6.80
71794;PMS7003;59641;45.188;5.712;2022-09-01T01:38:20;10.60;9.20;7.20
71794;PMS7003;59641;45.188;5.712;2022-09-01T01:40:46;10.00;10.00;8.40
71794;PMS7003;59641;45.188;5.712;2022-09-01T01:43:13;9.20;8.80;7.40
71794;PMS7003;59641;45.188;5.712;2022-09-01T01:45:49;8.20;8.20;7.20
71794;PMS7003;59641;45.188;5.712;2022-09-01T01:48:18;9.00;9.00;8.00
71794;PMS7003;59641;45.188;5.712;2022-09-01T01:50:49;7.60;7.60;6.60
71794;PMS7003;59641;45.188;5.712;2022-09-01T01:53:15;10.20;7.40;5.80
71794;PMS7003;59641;45.188;5.712;2022-09-01T01:55:43;11.20;10.40;7.60
71794;PMS7003;59641;45.188;5.712;2022-09-01T01:58:09;8.60;8.60;7.60
71794;PMS7003;59641;45.188;5.712;2022-09-01T02:00:36;9.60;9.60;7.00
71794;PMS7003;59641;45.188;5.712;2022-09-01T02:03:03;9.60;8.60;6.40
71794;PMS7003;59641;45.188;5.712;2022-09-01T02:05:32;8.80;7.80;6.00
71794;PMS7003;59641;45.188;5.712;2022-09-01T02:08:01;10.60;9.20;7.20
71794;PMS7003;59641;45.188;5.712;2022-09-01T02:10:31;12.80;9.80;7.60
71794;PMS7003;59641;45.188;5.712;2022-09-01T02:13:03;10.00;10.00;8.00
71794;PMS7003;59641;45.188;5.712;2022-09-01T02:15:32;8.60;8.60;6.00
71794;PMS7003;59641;45.188;5.712;2022-09-01T02:18:07;10.80;10.00;6.60
71794;PMS7003;59641;45.188;5.712;2022-09-01T02:20:32;7.00;6.00;4.00
71794;PMS7003;59641;45.188;5.712;2022-09-01T02:22:58;9.50;8.50;6.50
71794;PMS7003;59641;45.188;5.712;2022-09-01T02:25:33;9.80;9.20;5.80
71794;PMS7003;59641;45.188;5.712;2022-09-01T02:27:59;11.20;11.20;8.40
71794;PMS7003;59641;45.188;5.712;2022-09-01T02:30:27;10.40;9.40;7.40
71794;PMS7003;59641;45.188;5.712;2022-09-01T02:32:56;8.40;8.40;7.00
71794;PMS7003;59641;45.188;5.712;2022-09-01T02:35:22;10.80;10.20;8.20
71794;PMS7003;59641;45.188;5.712;2022-09-01T02:37:52;10.40;9.40;8.00
71794;PMS7003;59641;45.188;5.712;2022-09-01T02:40:23;9.80;9.80;8.00
71794;PMS7003;59641;45.188;5.712;2022-09-01T02:42:48;10.75;10.00;7.50
71794;PMS7003;59641;45.188;5.712;2022-09-01T02:45:17;9.60;9.00;7.80
71794;PMS7003;59641;45.188;5.712;2022-09-01T02:47:44;10.00;9.00;7.00
71794;PMS7003;59641;45.188;5.712;2022-09-01T02:50:13;8.40;8.40;7.00
71794;PMS7003;59641;45.188;5.712;2022-09-01T02:52:41;13.00;11.80;10.00
71794;PMS7003;59641;45.188;5.712;2022-09-01T02:55:08;8.80;7.00;5.00
71794;PMS7003;59641;45.188;5.712;2022-09-01T02:57:33;13.40;11.00;7.00
71794;PMS7003;59641;45.188;5.712;2022-09-01T02:59:59;14.75;14.50;12.00
71794;PMS7003;59641;45.188;5.712;2022-09-01T03:02:26;15.00;13.40;9.60
71794;PMS7003;59641;45.188;5.712;2022-09-01T03:04:53;10.60;8.80;7.80
71794;PMS7003;59641;45.188;5.712;2022-09-01T03:07:19;11.00;10.40;8.00
71794;PMS7003;59641;45.188;5.712;2022-09-01T03:09:49;11.80;10.20;8.00
71794;PMS7003;59641;45.188;5.712;2022-09-01T03:12:16;11.20;11.00;8.60
71794;PMS7003;59641;45.188;5.712;2022-09-01T03:14:43;14.00;11.40;8.40
71794;PMS7003;59641;45.188;5.712;2022-09-01T03:17:08;11.75;11.75;9.00
71794;PMS7003;59641;45.188;5.712;2022-09-01T03:19:34;14.00;10.50;8.50
71794;PMS7003;59641;45.188;5.712;2022-09-01T03:22:06;13.20;12.20;8.00
71794;PMS7003;59641;45.188;5.712;2022-09-01T03:24:31;9.25;9.25;7.25
71794;PMS7003;59641;45.188;5.712;2022-09-01T03:26:57;12.25;9.50;7.50
71794;PMS7003;59641;45.188;5.712;2022-09-01T03:29:22;9.00;9.00;7.00
71794;PMS7003;59641;45.188;5.712;2022-09-01T03:31:48;6.00;6.00;5.25
71794;PMS7003;59641;45.188;5.712;2022-09-01T03:34:14;12.25;10.50;7.00
71794;PMS7003;59641;45.188;5.712;2022-09-01T03:36:40;12.40;10.60;8.60
71794;PMS7003;59641;45.188;5.712;2022-09-01T03:39:14;11.80;10.60;8.00
71794;PMS7003;59641;45.188;5.712;2022-09-01T03:41:42;11.80;11.00;9.60
71794;PMS7003;59641;45.188;5.712;2022-09-01T03:44:08;11.80;10.00;8.00
71794;PMS7003;59641;45.188;5.712;2022-09-01T03:46:39;12.80;12.80;9.40
71794;PMS7003;59641;45.188;5.712;2022-09-01T03:49:04;9.25;8.50;7.00
71794;PMS7003;59641;45.188;5.712;2022-09-01T03:51:31;10.00;10.00;8.00
71794;PMS7003;59641;45.188;5.712;2022-09-01T03:53:58;11.20;11.00;9.40
71794;PMS7003;59641;45.188;5.712;2022-09-01T03:56:27;10.20;10.20;8.60
71794;PMS7003;59641;45.188;5.712;2022-09-01T03:58:56;10.40;8.80;6.00
71794;PMS7003;59641;45.188;5.712;2022-09-01T04:01:24;17.00;11.80;9.40
71794;PMS7003;59641;45.188;5.712;2022-09-01T04:03:51;12.00;12.00;8.40
71794;PMS7003;59641;45.188;5.712;2022-09-01T04:06:17;12.00;9.00;7.80
71794;PMS7003;59641;45.188;5.712;2022-09-01T04:08:44;11.80;9.00;7.00
71794;PMS7003;59641;45.188;5.712;2022-09-01T04:11:12;14.60;13.00;10.20
71794;PMS7003;59641;45.188;5.712;2022-09-01T04:13:42;11.00;9.20;8.00
71794;PMS7003;59641;45.188;5.712;2022-09-01T04:16:22;8.80;8.80;7.00
71794;PMS7003;59641;45.188;5.712;2022-09-01T04:19:10;14.80;12.00;9.40
71794;PMS7003;59641;45.188;5.712;2022-09-01T04:21:44;13.60;12.20;9.00
71794;PMS7003;59641;45.188;5.712;2022-09-01T04:24:17;14.20;12.40;9.80
71794;PMS7003;59641;45.188;5.712;2022-09-01T04:26:43;13.50;12.25;8.00
71794;PMS7003;59641;45.188;5.712;2022-09-01T04:29:13;13.40;10.40;8.40
71794;PMS7003;59641;45.188;5.712;2022-09-01T04:31:39;12.40;12.00;8.40
71794;PMS7003;59641;45.188;5.712;2022-09-01T04:34:06;11.00;10.00;8.00
71794;PMS7003;59641;45.188;5.712;2022-09-01T04:36:38;14.20;11.80;9.00
71794;PMS7003;59641;45.188;5.712;2022-09-01T04:39:06;10.40;10.40;7.00
71794;PMS7003;59641;45.188;5.712;2022-09-01T04:41:39;11.20;11.00;9.00
71794;PMS7003;59641;45.188;5.712;2022-09-01T04:44:07;11.20;11.20;7.20
71794;PMS7003;59641;45.188;5.712;2022-09-01T04:46:35;13.60;10.60;8.20
71794;PMS7003;59641;45.188;5.712;2022-09-01T04:49:03;11.40;10.00;7.80
71794;PMS7003;59641;45.188;5.712;2022-09-01T04:51:34;11.00;11.00;7.00
71794;PMS7003;59641;45.188;5.712;2022-09-01T04:54:02;10.20;10.00;8.00
71794;PMS7003;59641;45.188;5.712;2022-09-01T04:56:29;9.60;9.60;7.60
71794;PMS7003;59641;45.188;5.712;2022-09-01T04:58:59;12.00;11.40;7.80
71794;PMS7003;59641;45.188;5.712;2022-09-01T05:01:25;14.50;12.00;9.75
71794;PMS7003;59641;45.188;5.712;2022-09-01T05:03:51;13.20;12.40;8.80
71794;PMS7003;59641;45.188;5.712;2022-09-01T05:06:26;11.20;11.20;9.00
71794;PMS7003;59641;45.188;5.712;2022-09-01T05:08:53;12.20;12.20;9.00
71794;PMS7003;59641;45.188;5.712;2022-09-01T05:11:21;13.40;11.60;8.00
71794;PMS7003;59641;45.188;5.712;2022-09-01T05:13:48;11.20;11.20;8.20
71794;PMS7003;59641;45.188;5.712;2022-09-01T05:16:16;13.40;12.00;8.60
71794;PMS7003;59641;45.188;5.712;2022-09-01T05:18:45;11.80;11.80;8.60
71794;PMS7003;59641;45.188;5.712;2022-09-01T05:21:14;13.40;13.40;10.00
71794;PMS7003;59641;45.188;5.712;2022-09-01T05:23:44;16.20;13.80;10.00
71794;PMS7003;59641;45.188;5.712;2022-09-01T05:26:15;10.80;10.80;9.00
71794;PMS7003;59641;45.188;5.712;2022-09-01T05:28:43;12.00;10.00;9.00
71794;PMS7003;59641;45.188;5.712;2022-09-01T05:31:10;13.20;11.60;9.00
71794;PMS7003;59641;45.188;5.712;2022-09-01T05:33:36;14.00;13.60;10.60
71794;PMS7003;59641;45.188;5.712;2022-09-01T05:36:09;12.80;12.20;10.00
71794;PMS7003;59641;45.188;5.712;2022-09-01T05:38:36;10.40;10.40;7.20
71794;PMS7003;59641;45.188;5.712;2022-09-01T05:41:05;13.20;12.40;9.80
71794;PMS7003;59641;45.188;5.712;2022-09-01T05:43:33;12.40;11.40;9.00
71794;PMS7003;59641;45.188;5.712;2022-09-01T05:46:00;12.60;12.60;9.80
71794;PMS7003;59641;45.188;5.712;2022-09-01T05:48:32;11.00;10.80;9.20
71794;PMS7003;59641;45.188;5.712;2022-09-01T05:51:00;12.80;12.00;9.80
71794;PMS7003;59641;45.188;5.712;2022-09-01T05:53:30;12.80;12.80;9.60
71794;PMS7003;59641;45.188;5.712;2022-09-01T05:55:58;11.00;10.60;8.20
71794;PMS7003;59641;45.188;5.712;2022-09-01T05:58:30;12.20;12.20;9.80
71794;PMS7003;59641;45.188;5.712;2022-09-01T06:00:57;14.40;14.40;10.40
71794;PMS7003;59641;45.188;5.712;2022-09-01T06:03:23;12.80;12.00;9.40
71794;PMS7003;59641;45.188;5.712;2022-09-01T06:05:50;15.20;12.00;9.80
71794;PMS7003;59641;45.188;5.712;2022-09-01T06:08:21;15.60;14.40;10.00
71794;PMS7003;59641;45.188;5.712;2022-09-01T06:10:49;14.00;13.60;10.20
71794;PMS7003;59641;45.188;5.712;2022-09-01T06:13:16;13.60;13.60;8.60
71794;PMS7003;59641;45.188;5.712;2022-09-01T06:15:46;14.40;14.40;11.40
71794;PMS7003;59641;45.188;5.712;2022-09-01T06:18:13;15.40;14.80;10.60
71794;PMS7003;59641;45.188;5.712;2022-09-01T06:20:42;16.20;16.20;10.80
71794;PMS7003;59641;45.188;5.712;2022-09-01T06:23:09;15.20;15.20;12.00
71794;PMS7003;59641;45.188;5.712;2022-09-01T06:25:48;17.80;16.00;13.20
71794;PMS7003;59641;45.188;5.712;2022-09-01T06:28:14;20.25;17.00;12.25
71794;PMS7003;59641;45.188;5.712;2022-09-01T06:30:41;15.25;13.25;9.00
71794;PMS7003;59641;45.188;5.712;2022-09-01T06:33:08;13.80;13.80;10.80
71794;PMS7003;59641;45.188;5.712;2022-09-01T06:35:35;12.60;12.60;10.00
71794;PMS7003;59641;45.188;5.712;2022-09-01T06:38:02;15.80;14.80;11.40
71794;PMS7003;59641;45.188;5.712;2022-09-01T06:40:29;18.80;17.60;14.00
71794;PMS7003;59641;45.188;5.712;2022-09-01T06:42:56;18.20;16.80;12.00
71794;PMS7003;59641;45.188;5.712;2022-09-01T06:45:25;17.20;16.20;12.80
71794;PMS7003;59641;45.188;5.712;2022-09-01T06:47:50;16.00;16.00;12.25
71794;PMS7003;59641;45.188;5.712;2022-09-01T06:50:18;16.25;14.25;11.75
71794;PMS7003;59641;45.188;5.712;2022-09-01T06:52:46;19.40;17.80;12.00
71794;PMS7003;59641;45.188;5.712;2022-09-01T06:55:14;14.40;14.00;11.00
71794;PMS7003;59641;45.188;5.712;2022-09-01T06:57:41;15.60;14.40;8.80
71794;PMS7003;59641;45.188;5.712;2022-09-01T07:00:15;17.00;14.40;11.40
71794;PMS7003;59641;45.188;5.712;2022-09-01T07:02:45;17.60;15.40;12.20
71794;PMS7003;59641;45.188;5.712;2022-09-01T07:05:13;14.60;12.40;10.00
71794;PMS7003;59641;45.188;5.712;2022-09-01T07:07:46;11.40;11.40;10.00
71794;PMS7003;59641;45.188;5.712;2022-09-01T07:10:23;14.00;11.60;9.60
71794;PMS7003;59641;45.188;5.712;2022-09-01T07:12:56;14.40;13.80;9.80
71794;PMS7003;59641;45.188;5.712;2022-09-01T07:15:23;11.80;11.80;8.60
71794;PMS7003;59641;45.188;5.712;2022-09-01T07:17:50;10.25;10.25;7.75
71794;PMS7003;59641;45.188;5.712;2022-09-01T07:20:20;10.40;10.20;9.00
71794;PMS7003;59641;45.188;5.712;2022-09-01T07:22:49;10.00;10.00;8.00
71794;PMS7003;59641;45.188;5.712;2022-09-01T07:25:16;10.80;10.80;9.00
71794;PMS7003;59641;45.188;5.712;2022-09-01T07:27:44;9.40;9.40;7.40
71794;PMS7003;59641;45.188;5.712;2022-09-01T07:30:14;10.80;10.20;7.00
71794;PMS7003;59641;45.188;5.712;2022-09-01T07:32:41;9.40;9.40;7.80
71794;PMS7003;59641;45.188;5.712;2022-09-01T07:35:13;11.20;9.60;7.00
71794;PMS7003;59641;45.188;5.712;2022-09-01T07:37:42;10.00;9.00;7.00
71794;PMS7003;59641;45.188;5.712;2022-09-01T07:40:09;11.00;9.50;8.00
71794;PMS7003;59641;45.188;5.712;2022-09-01T07:42:36;14.40;12.60;9.00
71794;PMS7003;59641;45.188;5.712;2022-09-01T07:45:04;13.80;13.00;9.40
71794;PMS7003;59641;45.188;5.712;2022-09-01T07:47:34;8.00;8.00;7.00
71794;PMS7003;59641;45.188;5.712;2022-09-01T07:50:01;12.00;11.00;8.80
71794;PMS7003;59641;45.188;5.712;2022-09-01T07:52:35;11.00;11.00;8.60
71794;PMS7003;59641;45.188;5.712;2022-09-01T07:55:10;11.80;10.80;8.00
71794;PMS7003;59641;45.188;5.712;2022-09-01T07:57:39;13.40;12.40;9.60
71794;PMS7003;59641;45.188;5.712;2022-09-01T08:00:07;21.75;21.00;16.75
71794;PMS7003;59641;45.188;5.712;2022-09-01T08:02:34;11.00;10.60;8.80
71794;PMS7003;59641;45.188;5.712;2022-09-01T08:05:03;11.20;10.00;8.00
71794;PMS7003;59641;45.188;5.712;2022-09-01T08:07:34;10.20;10.20;7.80
71794;PMS7003;59641;45.188;5.712;2022-09-01T08:10:00;14.40;12.80;10.40
71794;PMS7003;59641;45.188;5.712;2022-09-01T08:12:28;10.00;9.60;7.80
71794;PMS7003;59641;45.188;5.712;2022-09-01T08:14:53;13.00;11.00;9.40
71794;PMS7003;59641;45.188;5.712;2022-09-01T08:17:19;10.50;10.50;8.50
71794;PMS7003;59641;45.188;5.712;2022-09-01T08:19:45;11.20;10.00;7.80
71794;PMS7003;59641;45.188;5.712;2022-09-01T08:22:11;9.80;9.80;7.80
71794;PMS7003;59641;45.188;5.712;2022-09-01T08:24:37;11.40;11.40;8.60
71794;PMS7003;59641;45.188;5.712;2022-09-01T08:27:03;11.50;11.50;9.00
71794;PMS7003;59641;45.188;5.712;2022-09-01T08:29:28;9.75;9.75;7.75
71794;PMS7003;59641;45.188;5.712;2022-09-01T08:31:54;10.75;9.25;7.00
71794;PMS7003;59641;45.188;5.712;2022-09-01T08:34:19;13.00;12.50;9.75
71794;PMS7003;59641;45.188;5.712;2022-09-01T08:36:45;10.75;10.75;7.50
71794;PMS7003;59641;45.188;5.712;2022-09-01T08:39:10;13.75;12.00;8.00
71794;PMS7003;59641;45.188;5.712;2022-09-01T08:41:55;12.25;12.25;10.00
71794;PMS7003;59641;45.188;5.712;2022-09-01T08:47:27;12.60;11.20;9.20
71794;PMS7003;59641;45.188;5.712;2022-09-01T08:49:55;12.80;12.20;9.60
71794;PMS7003;59641;45.188;5.712;2022-09-01T08:52:25;14.60;13.00;9.80
71794;PMS7003;59641;45.188;5.712;2022-09-01T08:54:54;12.20;12.00;10.60
71794;PMS7003;59641;45.188;5.712;2022-09-01T08:57:31;7.40;7.00;4.00
71794;PMS7003;59641;45.188;5.712;2022-09-01T08:59:59;11.60;10.80;7.80
71794;PMS7003;59641;45.188;5.712;2022-09-01T09:10:37;11.00;11.00;9.40
71794;PMS7003;59641;45.188;5.712;2022-09-01T09:17:01;12.00;11.20;8.20
71794;PMS7003;59641;45.188;5.712;2022-09-01T09:19:01;10.20;10.20;8.80
71794;PMS7003;59641;45.188;5.712;2022-09-01T09:21:40;9.00;9.00;7.40
71794;PMS7003;59641;45.188;5.712;2022-09-01T09:26:51;13.40;10.60;7.00
71794;PMS7003;59641;45.188;5.712;2022-09-01T09:29:18;12.20;12.00;9.20
71794;PMS7003;59641;45.188;5.712;2022-09-01T09:31:46;13.00;12.50;10.00
71794;PMS7003;59641;45.188;5.712;2022-09-01T09:34:37;11.80;11.80;10.00
71794;PMS7003;59641;45.188;5.712;2022-09-01T09:37:22;11.80;11.00;8.00
71794;PMS7003;59641;45.188;5.712;2022-09-01T09:42:38;16.40;14.40;11.00
71794;PMS7003;59641;45.188;5.712;2022-09-01T09:45:40;10.40;9.60;6.00
71794;PMS7003;59641;45.188;5.712;2022-09-01T09:48:03;14.00;11.20;8.60
71794;PMS7003;59641;45.188;5.712;2022-09-01T09:50:37;15.80;11.20;8.40
71794;PMS7003;59641;45.188;5.712;2022-09-01T09:58:28;10.60;10.60;9.00
71794;PMS7003;59641;45.188;5.712;2022-09-01T10:01:01;13.40;11.40;9.00
71794;PMS7003;59641;45.188;5.712;2022-09-01T10:04:01;12.00;11.60;9.40
71794;PMS7003;59641;45.188;5.712;2022-09-01T10:09:14;13.00;13.00;10.00
71794;PMS7003;59641;45.188;5.712;2022-09-01T10:11:41;13.00;12.60;9.80
71794;PMS7003;59641;45.188;5.712;2022-09-01T10:14:16;11.00;11.00;10.00
71794;PMS7003;59641;45.188;5.712;2022-09-01T10:16:50;12.80;11.00;9.00
71794;PMS7003;59641;45.188;5.712;2022-09-01T10:19:20;9.80;9.80;8.20
71794;PMS7003;59641;45.188;5.712;2022-09-01T10:21:47;11.00;11.00;9.40
71794;PMS7003;59641;45.188;5.712;2022-09-01T10:24:27;14.00;14.00;12.00
71794;PMS7003;59641;45.188;5.712;2022-09-01T10:26:58;12.60;12.60;10.00
71794;PMS7003;59641;45.188;5.712;2022-09-01T10:29:36;13.60;10.80;9.40
71794;PMS7003;59641;45.188;5.712;2022-09-01T10:32:08;11.20;10.60;8.40
71794;PMS7003;59641;45.188;5.712;2022-09-01T10:34:36;8.40;8.40;7.20
71794;PMS7003;59641;45.188;5.712;2022-09-01T10:37:04;11.00;10.40;7.40
71794;PMS7003;59641;45.188;5.712;2022-09-01T10:39:31;12.20;10.00;8.80
71794;PMS7003;59641;45.188;5.712;2022-09-01T10:41:57;10.00;10.00;7.75
71794;PMS7003;59641;45.188;5.712;2022-09-01T10:44:29;8.80;8.80;7.00
71794;PMS7003;59641;45.188;5.712;2022-09-01T10:47:00;10.60;10.40;7.80
71794;PMS7003;59641;45.188;5.712;2022-09-01T10:52:51;10.25;9.25;7.25
71794;PMS7003;59641;45.188;5.712;2022-09-01T10:55:07;8.80;8.00;6.20
71794;PMS7003;59641;45.188;5.712;2022-09-01T10:58:18;8.80;8.80;7.00
71794;PMS7003;59641;45.188;5.712;2022-09-01T11:00:49;10.00;9.60;7.60
71794;PMS7003;59641;45.188;5.712;2022-09-01T11:05:59;9.75;9.75;9.00
71794;PMS7003;59641;45.188;5.712;2022-09-01T11:10:58;11.75;11.75;9.25
71794;PMS7003;59641;45.188;5.712;2022-09-01T11:13:50;10.60;9.40;7.00
71794;PMS7003;59641;45.188;5.712;2022-09-01T11:16:23;10.60;9.40;7.00
71794;PMS7003;59641;45.188;5.712;2022-09-01T11:18:52;10.40;10.40;8.20
71794;PMS7003;59641;45.188;5.712;2022-09-01T11:26:56;8.40;8.40;6.00
71794;PMS7003;59641;45.188;5.712;2022-09-01T11:32:15;8.20;7.20;5.80
71794;PMS7003;59641;45.188;5.712;2022-09-01T11:34:41;12.20;11.40;9.00
71794;PMS7003;59641;45.188;5.712;2022-09-01T11:37:14;10.00;9.80;7.40
71794;PMS7003;59641;45.188;5.712;2022-09-01T11:39:44;10.60;10.00;8.60
71794;PMS7003;59641;45.188;5.712;2022-09-01T11:42:20;11.60;10.60;8.20
71794;PMS7003;59641;45.188;5.712;2022-09-01T11:44:54;11.00;11.00;9.00
71794;PMS7003;59641;45.188;5.712;2022-09-01T11:47:27;10.00;10.00;8.40
71794;PMS7003;59641;45.188;5.712;2022-09-01T11:50:04;11.80;10.00;8.60
71794;PMS7003;59641;45.188;5.712;2022-09-01T11:52:41;15.00;14.80;10.00
71794;PMS7003;59641;45.188;5.712;2022-09-01T11:55:17;8.20;7.80;6.00
71794;PMS7003;59641;45.188;5.712;2022-09-01T11:58:04;9.20;9.20;7.40
71794;PMS7003;59641;45.188;5.712;2022-09-01T12:00:31;9.80;9.80;8.00
71794;PMS7003;59641;45.188;5.712;2022-09-01T12:03:03;8.80;8.40;7.40
71794;PMS7003;59641;45.188;5.712;2022-09-01T12:05:43;8.40;8.40;7.00
71794;PMS7003;59641;45.188;5.712;2022-09-01T12:08:11;9.20;8.80;7.00
71794;PMS7003;59641;45.188;5.712;2022-09-01T12:10:42;9.80;9.00;6.20
71794;PMS7003;59641;45.188;5.712;2022-09-01T12:13:10;8.20;8.20;6.60
71794;PMS7003;59641;45.188;5.712;2022-09-01T12:15:38;12.20;9.60;8.20
71794;PMS7003;59641;45.188;5.712;2022-09-01T12:18:18;9.40;9.40;7.60
71794;PMS7003;59641;45.188;5.712;2022-09-01T12:20:47;7.00;7.00;6.00
71794;PMS7003;59641;45.188;5.712;2022-09-01T12:23:24;9.00;9.00;8.20
71794;PMS7003;59641;45.188;5.712;2022-09-01T12:26:27;9.00;9.00;7.80
71794;PMS7003;59641;45.188;5.712;2022-09-01T12:28:48;8.00;8.00;6.60
71794;PMS7003;59641;45.188;5.712;2022-09-01T12:31:17;8.60;8.40;7.60
71794;PMS7003;59641;45.188;5.712;2022-09-01T12:33:46;10.60;9.80;6.20
71794;PMS7003;59641;45.188;5.712;2022-09-01T12:38:49;8.20;8.20;7.00
71794;PMS7003;59641;45.188;5.712;2022-09-01T12:41:23;8.40;8.40;6.80
71794;PMS7003;59641;45.188;5.712;2022-09-01T12:43:48;7.80;7.20;6.00
71794;PMS7003;59641;45.188;5.712;2022-09-01T12:46:38;9.50;8.75;5.75
71794;PMS7003;59641;45.188;5.712;2022-09-01T12:49:18;8.00;8.00;5.80
71794;PMS7003;59641;45.188;5.712;2022-09-01T12:51:46;9.00;9.00;7.00
71794;PMS7003;59641;45.188;5.712;2022-09-01T12:54:12;11.60;9.00;6.80
71794;PMS7003;59641;45.188;5.712;2022-09-01T12:56:38;9.80;9.80;7.20
71794;PMS7003;59641;45.188;5.712;2022-09-01T12:59:08;10.50;10.50;8.00
71794;PMS7003;59641;45.188;5.712;2022-09-01T13:01:37;7.80;7.80;6.80
71794;PMS7003;59641;45.188;5.712;2022-09-01T13:04:05;7.00;7.00;6.00
71794;PMS7003;59641;45.188;5.712;2022-09-01T13:06:36;7.40;7.00;5.60
71794;PMS7003;59641;45.188;5.712;2022-09-01T13:09:02;6.40;6.40;5.60
71794;PMS7003;59641;45.188;5.712;2022-09-01T13:11:29;5.75;5.75;5.25
71794;PMS7003;59641;45.188;5.712;2022-09-01T13:13:55;7.40;7.40;5.20
71794;PMS7003;59641;45.188;5.712;2022-09-01T13:16:21;6.50;6.50;5.00
71794;PMS7003;59641;45.188;5.712;2022-09-01T13:18:46;9.00;9.00;6.25
71794;PMS7003;59641;45.188;5.712;2022-09-01T13:21:12;6.00;6.00;4.75
71794;PMS7003;59641;45.188;5.712;2022-09-01T13:23:38;5.40;5.00;5.00
71794;PMS7003;59641;45.188;5.712;2022-09-01T13:26:04;6.25;6.25;5.25
71794;PMS7003;59641;45.188;5.712;2022-09-01T13:28:29;6.00;6.00;5.00
71794;PMS7003;59641;45.188;5.712;2022-09-01T13:30:57;7.60;7.60;5.60
71794;PMS7003;59641;45.188;5.712;2022-09-01T13:33:27;7.20;6.20;5.00
71794;PMS7003;59641;45.188;5.712;2022-09-01T13:35:52;6.60;5.80;5.00
71794;PMS7003;59641;45.188;5.712;2022-09-01T13:38:18;5.80;5.60;4.60
71794;PMS7003;59641;45.188;5.712;2022-09-01T13:40:45;7.80;7.80;6.60
71794;PMS7003;59641;45.188;5.712;2022-09-01T13:43:15;6.80;6.80;5.60
71794;PMS7003;59641;45.188;5.712;2022-09-01T13:45:43;6.40;6.40;4.80
71794;PMS7003;59641;45.188;5.712;2022-09-01T13:48:09;8.25;6.25;5.50
71794;PMS7003;59641;45.188;5.712;2022-09-01T13:50:35;6.50;6.00;5.00
71794;PMS7003;59641;45.188;5.712;2022-09-01T13:53:02;10.20;10.20;6.60
71794;PMS7003;59641;45.188;5.712;2022-09-01T13:55:29;7.50;6.50;5.25
71794;PMS7003;59641;45.188;5.712;2022-09-01T13:57:56;8.40;8.40;7.20
71794;PMS7003;59641;45.188;5.712;2022-09-01T14:00:24;7.00;6.20;5.00
71794;PMS7003;59641;45.188;5.712;2022-09-01T14:02:54;7.00;7.00;6.00
71794;PMS7003;59641;45.188;5.712;2022-09-01T14:05:22;6.00;5.00;4.00
71794;PMS7003;59641;45.188;5.712;2022-09-01T14:07:49;6.60;6.60;4.00
71794;PMS7003;59641;45.188;5.712;2022-09-01T14:10:16;5.40;5.40;4.00
71794;PMS7003;59641;45.188;5.712;2022-09-01T14:12:42;5.60;5.60;5.20
71794;PMS7003;59641;45.188;5.712;2022-09-01T14:15:10;5.80;5.80;4.20
71794;PMS7003;59641;45.188;5.712;2022-09-01T14:17:37;4.20;4.20;4.00
71794;PMS7003;59641;45.188;5.712;2022-09-01T14:20:04;5.80;5.80;5.00
71794;PMS7003;59641;45.188;5.712;2022-09-01T14:22:32;5.20;5.00;4.00
71794;PMS7003;59641;45.188;5.712;2022-09-01T14:24:58;4.60;4.60;3.80
71794;PMS7003;59641;45.188;5.712;2022-09-01T14:27:24;5.50;5.50;5.00
71794;PMS7003;59641;45.188;5.712;2022-09-01T14:29:50;5.00;4.75;4.25
71794;PMS7003;59641;45.188;5.712;2022-09-01T14:32:17;5.00;5.00;4.00
71794;PMS7003;59641;45.188;5.712;2022-09-01T14:34:46;5.60;4.20;3.40
71794;PMS7003;59641;45.188;5.712;2022-09-01T14:37:12;7.00;5.75;4.50
71794;PMS7003;59641;45.188;5.712;2022-09-01T14:39:38;6.60;4.60;3.80
71794;PMS7003;59641;45.188;5.712;2022-09-01T14:42:04;5.00;4.75;4.00
71794;PMS7003;59641;45.188;5.712;2022-09-01T14:44:36;5.00;5.00;4.00
71794;PMS7003;59641;45.188;5.712;2022-09-01T14:47:02;3.60;3.60;3.40
71794;PMS7003;59641;45.188;5.712;2022-09-01T14:49:30;6.00;6.00;4.40
71794;PMS7003;59641;45.188;5.712;2022-09-01T14:52:04;4.80;4.80;4.00
71794;PMS7003;59641;45.188;5.712;2022-09-01T14:54:35;4.60;4.60;4.00
71794;PMS7003;59641;45.188;5.712;2022-09-01T14:57:04;4.40;3.80;3.00
71794;PMS7003;59641;45.188;5.712;2022-09-01T14:59:30;4.40;4.40;4.40
71794;PMS7003;59641;45.188;5.712;2022-09-01T15:01:56;5.00;5.00;4.40
71794;PMS7003;59641;45.188;5.712;2022-09-01T15:04:22;5.50;5.50;4.75
71794;PMS7003;59641;45.188;5.712;2022-09-01T15:06:47;7.00;7.00;5.00
71794;PMS7003;59641;45.188;5.712;2022-09-01T15:09:13;7.25;5.75;4.25
71794;PMS7003;59641;45.188;5.712;2022-09-01T15:11:39;6.50;5.75;4.50